createdAt,value
2023-05-10T00:01:53.900Z,11.70
2023-05-10T00:04:20.918Z,11.70
2023-05-10T00:06:47.851Z,11.70
2023-05-10T00:09:17.798Z,11.60
2023-05-10T00:11:47.291Z,11.60
2023-05-10T00:14:16.734Z,11.60
2023-05-10T00:16:44.080Z,11.60
2023-05-10T00:19:11.099Z,11.70
2023-05-10T00:21:37.947Z,11.70
2023-05-10T00:24:07.133Z,11.70
2023-05-10T00:26:34.214Z,11.70
2023-05-10T00:29:04.197Z,11.70
2023-05-10T00:31:31.204Z,11.70
2023-05-10T00:33:58.016Z,11.80
2023-05-10T00:36:25.301Z,11.80
2023-05-10T00:38:52.134Z,11.80
2023-05-10T00:41:18.991Z,11.80
2023-05-10T00:43:45.869Z,11.80
2023-05-10T00:46:13.198Z,11.80
2023-05-10T00:48:40.137Z,11.80
2023-05-10T00:51:07.441Z,11.90
2023-05-10T00:53:36.048Z,12.00
2023-05-10T00:56:04.354Z,11.90
2023-05-10T00:58:32.006Z,11.90
2023-05-10T01:01:01.429Z,11.90
2023-05-10T01:03:31.850Z,11.90
2023-05-10T01:05:59.000Z,12.00
2023-05-10T01:08:34.372Z,12.00
2023-05-10T01:11:03.503Z,12.00
2023-05-10T01:13:40.676Z,12.00
2023-05-10T01:16:12.033Z,12.00
2023-05-10T01:18:42.881Z,12.00
2023-05-10T01:21:30.613Z,12.00
2023-05-10T01:24:35.853Z,12.00
2023-05-10T01:27:36.788Z,12.00
2023-05-10T01:30:14.126Z,12.00
2023-05-10T01:32:42.475Z,12.00
2023-05-10T01:35:28.758Z,12.00
2023-05-10T01:38:20.245Z,12.00
2023-05-10T01:41:08.713Z,11.90
2023-05-10T01:43:53.657Z,11.90
2023-05-10T01:46:29.863Z,11.90
2023-05-10T01:49:01.020Z,11.90
2023-05-10T01:51:41.926Z,11.80
2023-05-10T01:54:11.911Z,11.80
2023-05-10T01:56:40.362Z,11.80
2023-05-10T01:59:11.454Z,11.80
2023-05-10T02:01:39.817Z,11.80
2023-05-10T02:04:08.651Z,11.90
2023-05-10T02:06:36.895Z,11.90
2023-05-10T02:09:05.176Z,11.90
2023-05-10T02:11:33.917Z,11.90
2023-05-10T02:14:02.214Z,11.80
2023-05-10T02:16:31.918Z,11.90
2023-05-10T02:19:02.444Z,11.90
2023-05-10T02:21:31.823Z,11.90
2023-05-10T02:24:00.301Z,11.80
2023-05-10T02:26:28.412Z,11.90
2023-05-10T02:28:56.975Z,11.90
2023-05-10T02:31:24.806Z,11.80
2023-05-10T02:33:52.118Z,11.80
2023-05-10T02:36:21.899Z,11.80
2023-05-10T02:38:51.056Z,11.80
2023-05-10T02:41:21.886Z,11.90
2023-05-10T02:43:55.821Z,11.80
2023-05-10T02:46:22.796Z,11.80
2023-05-10T02:48:51.904Z,11.80
2023-05-10T02:51:20.167Z,11.80
2023-05-10T02:53:50.211Z,11.80
2023-05-10T02:56:26.839Z,11.90
2023-05-10T02:58:53.851Z,11.80
2023-05-10T03:01:20.676Z,11.80
2023-05-10T03:03:47.643Z,11.80
2023-05-10T03:06:14.697Z,11.80
2023-05-10T03:08:41.495Z,11.80
2023-05-10T03:11:29.213Z,11.80
2023-05-10T03:14:29.722Z,11.70
2023-05-10T03:17:11.097Z,11.70
2023-05-10T03:19:56.438Z,11.70
2023-05-10T03:22:37.644Z,11.70
2023-05-10T03:25:07.910Z,11.70
2023-05-10T03:27:36.800Z,11.70
2023-05-10T03:30:05.273Z,11.70
2023-05-10T03:32:35.373Z,11.60
2023-05-10T03:35:07.212Z,11.60
2023-05-10T03:37:33.981Z,11.70
2023-05-10T03:40:01.610Z,11.60
2023-05-10T03:42:28.448Z,11.60
2023-05-10T03:44:56.823Z,11.60
2023-05-10T03:47:27.001Z,11.60
2023-05-10T03:49:53.895Z,11.60
2023-05-10T03:52:23.310Z,11.60
2023-05-10T03:54:50.151Z,11.60
2023-05-10T03:57:19.738Z,11.50
2023-05-10T03:59:48.241Z,11.60
2023-05-10T04:02:17.627Z,11.60
2023-05-10T04:04:44.546Z,11.60
2023-05-10T04:07:11.396Z,11.60
2023-05-10T04:09:41.352Z,11.50
2023-05-10T04:12:10.737Z,11.60
2023-05-10T04:14:38.246Z,11.60
2023-05-10T04:17:05.233Z,11.60
2023-05-10T04:19:32.830Z,11.60
2023-05-10T04:22:02.918Z,11.50
2023-05-10T04:24:29.926Z,11.50
2023-05-10T04:27:03.237Z,11.60
2023-05-10T04:29:32.631Z,11.60
2023-05-10T04:31:59.739Z,11.60
2023-05-10T04:34:31.567Z,11.50
2023-05-10T04:36:58.366Z,11.60
2023-05-10T04:39:25.242Z,11.50
2023-05-10T04:41:54.402Z,11.60
2023-05-10T04:44:24.165Z,11.60
2023-05-10T04:46:51.336Z,11.60
2023-05-10T04:49:19.026Z,11.50
2023-05-10T04:51:51.281Z,11.60
2023-05-10T04:54:24.634Z,11.60
2023-05-10T04:56:54.008Z,11.60
2023-05-10T04:59:20.813Z,11.60
2023-05-10T05:01:47.696Z,11.60
2023-05-10T05:04:15.550Z,11.70
2023-05-10T05:06:42.275Z,11.70
2023-05-10T05:09:09.037Z,11.70
2023-05-10T05:11:40.597Z,11.80
2023-05-10T05:14:07.950Z,11.80
2023-05-10T05:16:38.115Z,11.80
2023-05-10T05:19:07.519Z,11.70
2023-05-10T05:21:34.374Z,11.80
2023-05-10T05:24:02.029Z,11.80
2023-05-10T05:26:28.894Z,11.90
2023-05-10T05:28:55.734Z,11.80
2023-05-10T05:31:22.702Z,11.80
2023-05-10T05:33:49.587Z,11.80
2023-05-10T05:36:16.454Z,11.80
2023-05-10T05:38:44.054Z,11.80
2023-05-10T05:41:10.838Z,11.80
2023-05-10T05:43:38.504Z,11.80
2023-05-10T05:46:05.801Z,11.80
2023-05-10T05:48:32.951Z,11.80
2023-05-10T05:51:00.292Z,11.80
2023-05-10T05:53:32.445Z,11.80
2023-05-10T05:56:00.145Z,11.90
2023-05-10T05:58:29.916Z,11.80
2023-05-10T06:00:56.867Z,11.90
2023-05-10T06:03:26.557Z,11.90
2023-05-10T06:05:53.561Z,11.90
2023-05-10T06:08:23.615Z,12.00
2023-05-10T06:10:50.557Z,12.10
2023-05-10T06:13:17.492Z,12.20
2023-05-10T06:15:44.417Z,12.30
2023-05-10T06:18:11.471Z,12.40
2023-05-10T06:20:38.510Z,12.40
2023-05-10T06:23:05.530Z,12.30
2023-05-10T06:25:32.395Z,12.20
2023-05-10T06:27:59.397Z,12.10
2023-05-10T06:30:30.361Z,12.10
2023-05-10T06:32:57.695Z,12.20
2023-05-10T06:35:25.219Z,12.60
2023-05-10T06:37:52.538Z,13.00
2023-05-10T06:40:19.535Z,13.00
2023-05-10T06:42:47.367Z,12.90
2023-05-10T06:45:15.789Z,12.90
2023-05-10T06:47:43.365Z,12.90
2023-05-10T06:50:10.789Z,12.90
2023-05-10T06:52:37.801Z,13.10
2023-05-10T06:55:05.636Z,13.60
2023-05-10T06:57:32.798Z,14.40
2023-05-10T07:00:00.484Z,15.40
2023-05-10T07:02:27.556Z,16.30
2023-05-10T07:04:55.141Z,17.00
2023-05-10T07:07:22.231Z,17.00
2023-05-10T07:09:49.992Z,16.70
2023-05-10T07:12:17.018Z,17.20
2023-05-10T07:14:43.905Z,18.20
2023-05-10T07:17:11.019Z,19.40
2023-05-10T07:19:37.997Z,19.60
2023-05-10T07:22:04.831Z,20.00
2023-05-10T07:24:32.550Z,20.30
2023-05-10T07:26:59.412Z,20.50
2023-05-10T07:29:26.376Z,21.10
2023-05-10T07:31:53.256Z,21.50
2023-05-10T07:34:20.202Z,21.60
2023-05-10T07:36:47.496Z,21.30
2023-05-10T07:39:18.622Z,21.40
2023-05-10T07:41:51.464Z,21.90
2023-05-10T07:44:20.262Z,22.10
2023-05-10T07:46:48.020Z,22.10
2023-05-10T07:49:14.970Z,21.80
2023-05-10T07:51:42.385Z,22.00
2023-05-10T07:54:09.230Z,22.40
2023-05-10T07:56:36.104Z,22.80
2023-05-10T07:59:05.319Z,23.70
2023-05-10T08:01:33.886Z,24.10
2023-05-10T08:04:01.405Z,24.80
2023-05-10T08:06:30.784Z,24.00
2023-05-10T08:08:58.059Z,23.50
2023-05-10T08:11:25.774Z,24.60
2023-05-10T08:13:52.925Z,25.40
2023-05-10T08:16:20.528Z,25.50
2023-05-10T08:18:48.207Z,25.10
2023-05-10T08:21:16.435Z,25.30
2023-05-10T08:23:47.331Z,24.20
2023-05-10T08:26:14.356Z,22.70
2023-05-10T08:28:41.171Z,22.90
2023-05-10T08:31:08.026Z,22.60
2023-05-10T08:33:35.196Z,23.20
2023-05-10T08:36:02.350Z,23.40
2023-05-10T08:38:29.293Z,23.90
2023-05-10T08:41:00.112Z,24.00
2023-05-10T08:43:35.932Z,23.30
2023-05-10T08:46:04.228Z,22.90
2023-05-10T08:48:35.515Z,22.60
2023-05-10T08:51:03.787Z,23.20
2023-05-10T08:53:34.063Z,23.50
2023-05-10T08:56:03.326Z,22.10
2023-05-10T08:58:30.611Z,22.10
2023-05-10T09:00:59.107Z,22.50
2023-05-10T09:03:26.012Z,23.80
2023-05-10T09:05:54.073Z,24.30
2023-05-10T09:08:23.726Z,23.90
2023-05-10T09:10:50.715Z,23.80
2023-05-10T09:13:19.594Z,23.10
2023-05-10T09:15:46.944Z,23.00
2023-05-10T09:18:17.923Z,24.00
2023-05-10T09:20:46.708Z,25.00
2023-05-10T09:23:13.584Z,26.10
2023-05-10T09:25:43.025Z,24.90
2023-05-10T09:28:10.941Z,24.90
2023-05-10T09:30:37.906Z,25.60
2023-05-10T09:33:05.086Z,25.20
2023-05-10T09:35:34.485Z,24.50
2023-05-10T09:38:04.456Z,24.30
2023-05-10T09:40:31.946Z,24.00
2023-05-10T09:43:08.201Z,23.20
2023-05-10T09:45:38.664Z,23.70
2023-05-10T09:48:07.473Z,24.20
2023-05-10T09:50:35.298Z,23.60
2023-05-10T09:53:04.523Z,24.70
2023-05-10T09:55:37.342Z,24.50
2023-05-10T09:58:05.365Z,24.40
2023-05-10T10:00:37.479Z,23.90
2023-05-10T10:03:05.097Z,24.10
2023-05-10T10:05:33.786Z,24.70
2023-05-10T10:08:03.276Z,25.80
2023-05-10T10:10:31.841Z,26.00
2023-05-10T10:12:58.996Z,26.00
2023-05-10T10:15:28.116Z,25.60
2023-05-10T10:17:55.590Z,24.70
2023-05-10T10:20:23.626Z,24.10
2023-05-10T10:22:50.898Z,23.80
2023-05-10T10:25:19.889Z,24.10
2023-05-10T10:27:55.229Z,24.20
2023-05-10T10:30:40.185Z,24.60
2023-05-10T10:33:48.409Z,25.60
2023-05-10T10:36:16.491Z,25.50
2023-05-10T10:38:49.169Z,25.30
2023-05-10T10:41:36.451Z,24.80
2023-05-10T10:44:38.532Z,25.50
2023-05-10T10:47:07.044Z,24.10
2023-05-10T10:49:38.805Z,24.70
2023-05-10T10:52:34.359Z,24.40
2023-05-10T10:55:09.208Z,24.00
2023-05-10T10:57:41.905Z,25.20
2023-05-10T11:00:42.099Z,26.00
2023-05-10T11:03:19.677Z,24.80
2023-05-10T11:05:48.756Z,23.20
2023-05-10T11:08:28.920Z,22.60
2023-05-10T11:11:02.247Z,21.90
2023-05-10T11:13:35.026Z,21.30
2023-05-10T11:16:17.681Z,23.00
2023-05-10T11:19:05.687Z,24.30
2023-05-10T11:21:33.896Z,25.20
2023-05-10T11:24:07.196Z,24.50
2023-05-10T11:26:36.514Z,22.60
2023-05-10T11:29:05.545Z,22.90
2023-05-10T11:31:32.715Z,22.30
2023-05-10T11:34:02.747Z,21.30
2023-05-10T11:36:36.972Z,19.80
2023-05-10T11:39:05.064Z,19.10
2023-05-10T11:41:32.341Z,18.70
2023-05-10T11:43:59.425Z,18.20
2023-05-10T11:46:29.204Z,17.90
2023-05-10T11:49:01.643Z,17.80
2023-05-10T11:51:28.797Z,18.00
2023-05-10T11:53:57.500Z,19.30
2023-05-10T11:56:24.622Z,21.10
2023-05-10T11:58:56.788Z,22.00
2023-05-10T12:01:27.591Z,22.60
2023-05-10T12:03:56.361Z,23.20
2023-05-10T12:06:23.546Z,23.40
2023-05-10T12:08:53.624Z,23.30
2023-05-10T12:11:22.891Z,23.10
2023-05-10T12:13:51.189Z,22.90
2023-05-10T12:16:22.699Z,23.20
2023-05-10T12:18:52.240Z,23.40
2023-05-10T12:21:24.730Z,22.00
2023-05-10T12:23:53.532Z,20.80
2023-05-10T12:26:23.528Z,20.70
2023-05-10T12:28:51.825Z,21.50
2023-05-10T12:31:20.097Z,21.40
2023-05-10T12:33:48.481Z,22.20
2023-05-10T12:36:16.988Z,23.10
2023-05-10T12:38:52.111Z,23.30
2023-05-10T12:41:19.902Z,22.80
2023-05-10T12:43:47.427Z,22.30
2023-05-10T12:46:15.415Z,22.60
2023-05-10T12:48:43.566Z,22.80
2023-05-10T12:51:12.710Z,22.80
2023-05-10T12:53:42.578Z,21.30
2023-05-10T12:56:11.487Z,20.20
2023-05-10T12:58:40.036Z,20.30
2023-05-10T13:01:07.277Z,20.80
2023-05-10T13:03:34.258Z,21.40
2023-05-10T13:06:01.240Z,20.30
2023-05-10T13:08:28.082Z,20.60
2023-05-10T13:10:54.892Z,19.60
2023-05-10T13:13:24.504Z,19.40
2023-05-10T13:15:51.310Z,19.40
2023-05-10T13:18:18.299Z,19.60
2023-05-10T13:20:45.426Z,19.60
2023-05-10T13:23:12.315Z,19.50
2023-05-10T13:25:39.130Z,18.70
2023-05-10T13:28:05.970Z,18.30
2023-05-10T13:30:32.894Z,18.20
2023-05-10T13:32:59.771Z,18.10
2023-05-10T13:35:26.544Z,18.10
2023-05-10T13:37:54.477Z,18.30
2023-05-10T13:40:21.268Z,18.70
2023-05-10T13:42:48.020Z,18.40
2023-05-10T13:45:15.012Z,18.30
2023-05-10T13:47:42.133Z,18.30
2023-05-10T13:50:09.158Z,18.20
2023-05-10T13:52:36.495Z,18.20
2023-05-10T13:55:03.774Z,18.00
2023-05-10T13:57:31.275Z,18.10
2023-05-10T13:59:58.370Z,18.30
2023-05-10T14:02:25.610Z,18.70
2023-05-10T14:04:52.719Z,18.90
2023-05-10T14:07:19.529Z,18.50
2023-05-10T14:09:46.280Z,18.20
2023-05-10T14:12:13.062Z,18.00
2023-05-10T14:14:40.132Z,17.60
2023-05-10T14:17:07.090Z,17.70
2023-05-10T14:19:36.364Z,17.90
2023-05-10T14:22:03.736Z,17.90
2023-05-10T14:24:30.746Z,17.80
2023-05-10T14:26:57.570Z,17.70
2023-05-10T14:29:26.794Z,17.40
2023-05-10T14:31:53.633Z,17.10
2023-05-10T14:34:20.931Z,17.10
2023-05-10T14:36:47.839Z,16.80
2023-05-10T14:39:14.834Z,16.70
2023-05-10T14:41:45.576Z,16.80
2023-05-10T14:44:12.781Z,16.60
2023-05-10T14:46:40.603Z,16.40
2023-05-10T14:49:07.553Z,16.40
2023-05-10T14:51:37.002Z,16.40
2023-05-10T14:54:06.816Z,16.30
2023-05-10T14:56:33.676Z,16.70
2023-05-10T14:59:04.950Z,17.20
2023-05-10T15:01:34.009Z,17.50
2023-05-10T15:04:05.968Z,17.80
2023-05-10T15:06:34.903Z,17.60
2023-05-10T15:09:02.763Z,17.40
2023-05-10T15:11:30.026Z,17.60
2023-05-10T15:13:59.423Z,17.80
2023-05-10T15:16:27.716Z,18.10
2023-05-10T15:18:54.642Z,18.20
2023-05-10T15:21:21.564Z,17.90
2023-05-10T15:23:49.077Z,17.40
2023-05-10T15:26:19.546Z,17.00
2023-05-10T15:28:46.930Z,16.90
2023-05-10T15:31:13.752Z,16.80
2023-05-10T15:33:40.529Z,16.80
2023-05-10T15:36:09.378Z,16.50
2023-05-10T15:38:38.155Z,16.30
2023-05-10T15:41:04.931Z,16.30
2023-05-10T15:43:31.782Z,16.20
2023-05-10T15:45:58.640Z,16.10
2023-05-10T15:48:25.429Z,15.90
2023-05-10T15:50:52.156Z,16.00
2023-05-10T15:53:18.900Z,16.00
2023-05-10T15:55:45.759Z,16.00
2023-05-10T15:58:12.525Z,16.10
2023-05-10T16:00:39.295Z,16.30
2023-05-10T16:03:06.865Z,16.40
2023-05-10T16:05:34.054Z,16.30
2023-05-10T16:08:03.921Z,16.40
2023-05-10T16:10:33.858Z,16.30
2023-05-10T16:13:02.334Z,16.40
2023-05-10T16:15:29.110Z,16.10
2023-05-10T16:17:56.487Z,16.00
2023-05-10T16:20:23.996Z,15.80
2023-05-10T16:22:50.952Z,15.90
2023-05-10T16:25:18.260Z,15.80
2023-05-10T16:27:45.291Z,15.80
2023-05-10T16:30:12.556Z,15.70
2023-05-10T16:32:39.463Z,15.80
2023-05-10T16:35:07.021Z,15.60
2023-05-10T16:37:33.875Z,15.60
2023-05-10T16:40:00.802Z,15.60
2023-05-10T16:42:30.527Z,15.60
2023-05-10T16:45:10.160Z,15.60
2023-05-10T16:50:45.653Z,15.60
2023-05-10T16:53:12.734Z,15.40
2023-05-10T16:55:39.556Z,15.30
2023-05-10T16:58:08.802Z,15.40
2023-05-10T17:00:36.287Z,15.20
2023-05-10T17:03:07.021Z,15.10
2023-05-10T17:05:34.111Z,15.10
2023-05-10T17:08:01.020Z,15.00
2023-05-10T17:10:30.437Z,14.90
2023-05-10T17:12:57.284Z,14.80
2023-05-10T17:15:24.174Z,14.80
2023-05-10T17:17:51.316Z,14.90
2023-05-10T17:20:18.316Z,14.90
2023-05-10T17:22:45.117Z,14.80
2023-05-10T17:25:11.961Z,14.70
2023-05-10T17:27:44.943Z,14.70
2023-05-10T17:30:14.671Z,14.60
2023-05-10T17:32:41.499Z,14.60
2023-05-10T17:35:08.780Z,14.60
2023-05-10T17:37:35.707Z,14.60
2023-05-10T17:40:03.923Z,14.70
2023-05-10T17:42:32.259Z,14.60
2023-05-10T17:44:59.358Z,14.50
2023-05-10T17:47:26.273Z,14.30
2023-05-10T17:50:02.439Z,14.20
2023-05-10T17:52:30.889Z,14.20
2023-05-10T17:55:03.248Z,14.10
2023-05-10T17:57:30.104Z,14.00
2023-05-10T17:59:57.165Z,14.00
2023-05-10T18:02:24.809Z,14.00
2023-05-10T18:04:51.706Z,14.00
2023-05-10T18:07:18.586Z,14.00
2023-05-10T18:09:45.404Z,14.00
2023-05-10T18:12:12.462Z,13.90
2023-05-10T18:14:41.485Z,13.90
2023-05-10T18:17:09.527Z,13.80
2023-05-10T18:19:36.716Z,13.70
2023-05-10T18:22:03.700Z,13.70
2023-05-10T18:24:38.860Z,13.70
2023-05-10T18:27:09.881Z,13.60
2023-05-10T18:29:37.163Z,13.60
2023-05-10T18:32:04.228Z,13.50
2023-05-10T18:34:31.065Z,13.50
2023-05-10T18:36:58.103Z,13.60
2023-05-10T18:39:28.153Z,13.60
2023-05-10T18:41:56.578Z,13.60
2023-05-10T18:44:32.470Z,13.60
2023-05-10T18:46:59.395Z,13.60
2023-05-10T18:49:27.543Z,13.60
2023-05-10T18:51:54.504Z,13.70
2023-05-10T18:55:04.777Z,13.70
2023-05-10T18:57:14.466Z,13.60
2023-05-10T18:59:41.681Z,13.60
2023-05-10T19:02:12.358Z,13.60
2023-05-10T19:04:42.694Z,13.50
2023-05-10T19:07:09.674Z,13.50
2023-05-10T19:09:36.721Z,13.40
2023-05-10T19:12:03.757Z,13.40
2023-05-10T19:14:30.779Z,13.20
2023-05-10T19:16:59.114Z,13.10
2023-05-10T19:19:27.852Z,13.10
2023-05-10T19:21:54.741Z,13.00
2023-05-10T19:24:24.347Z,12.90
2023-05-10T19:26:51.382Z,12.70
2023-05-10T19:29:18.386Z,12.70
2023-05-10T19:31:45.280Z,12.60
2023-05-10T19:34:12.490Z,12.60
2023-05-10T19:36:39.321Z,12.60
2023-05-10T19:39:06.254Z,12.50
2023-05-10T19:41:35.306Z,12.60
2023-05-10T19:44:02.464Z,12.50
2023-05-10T19:46:32.383Z,12.50
2023-05-10T19:48:59.202Z,12.50
2023-05-10T19:51:26.030Z,12.40
2023-05-10T19:53:55.460Z,12.40
2023-05-10T19:56:22.422Z,12.40
2023-05-10T19:58:49.229Z,12.30
2023-05-10T20:01:16.212Z,12.30
2023-05-10T20:03:46.330Z,12.40
2023-05-10T20:06:18.820Z,12.30
2023-05-10T20:08:49.869Z,12.40
2023-05-10T20:11:17.993Z,12.30
2023-05-10T20:13:44.960Z,12.30
2023-05-10T20:16:14.874Z,12.30
2023-05-10T20:18:41.779Z,12.20
2023-05-10T20:21:08.632Z,12.20
2023-05-10T20:23:35.731Z,12.20
2023-05-10T20:26:09.178Z,12.20
2023-05-10T20:28:41.819Z,12.10
2023-05-10T20:31:19.369Z,12.20
2023-05-10T20:34:12.834Z,12.30
2023-05-10T20:36:46.533Z,12.30
2023-05-10T20:39:14.207Z,12.30
2023-05-10T20:41:45.624Z,12.30
2023-05-10T20:44:40.635Z,12.20
2023-05-10T20:47:08.402Z,12.20
2023-05-10T20:49:39.587Z,12.20
2023-05-10T20:52:07.154Z,12.10
2023-05-10T20:54:34.397Z,12.10
2023-05-10T20:57:03.694Z,12.00
2023-05-10T20:59:30.936Z,12.00
2023-05-10T21:01:59.118Z,12.00
2023-05-10T21:04:26.294Z,12.00
2023-05-10T21:06:58.508Z,12.00
2023-05-10T21:09:26.220Z,12.00
2023-05-10T21:11:55.937Z,11.90
2023-05-10T21:14:22.767Z,11.80
2023-05-10T21:16:51.272Z,11.90
2023-05-10T21:19:20.405Z,11.80
2023-05-10T21:21:47.615Z,11.80
2023-05-10T21:24:14.524Z,11.80
2023-05-10T21:26:43.312Z,11.70
2023-05-10T21:29:10.145Z,11.80
2023-05-10T21:31:36.986Z,11.70
2023-05-10T21:34:11.294Z,11.70
2023-05-10T21:36:38.193Z,11.70
2023-05-10T21:39:09.669Z,11.70
2023-05-10T21:42:02.333Z,11.80
2023-05-10T21:44:30.153Z,11.70
2023-05-10T21:46:59.372Z,11.70
2023-05-10T21:49:26.627Z,11.80
2023-05-10T21:52:00.326Z,11.80
2023-05-10T21:54:40.304Z,11.80
2023-05-10T21:57:14.918Z,11.90
2023-05-10T22:00:03.696Z,11.90
2023-05-10T22:02:33.490Z,11.90
2023-05-10T22:05:07.544Z,11.90
2023-05-10T22:07:49.681Z,11.90
2023-05-10T22:10:16.830Z,11.90
2023-05-10T22:12:43.794Z,12.00
2023-05-10T22:15:36.353Z,12.00
2023-05-10T22:18:04.416Z,12.00
2023-05-10T22:20:33.832Z,12.00
2023-05-10T22:23:03.199Z,11.90
2023-05-10T22:25:30.729Z,11.90
2023-05-10T22:28:00.121Z,11.80
2023-05-10T22:30:48.300Z,11.80
2023-05-10T22:33:18.565Z,11.80
2023-05-10T22:35:50.927Z,11.80
2023-05-10T22:38:17.805Z,11.70
2023-05-10T22:40:44.656Z,11.70
2023-05-10T22:43:15.964Z,11.70
2023-05-10T22:45:45.815Z,11.70
2023-05-10T22:48:13.269Z,11.70
2023-05-10T22:50:40.231Z,11.60
2023-05-10T22:53:12.614Z,11.60
2023-05-10T22:55:39.578Z,11.50
2023-05-10T22:58:06.900Z,11.50
2023-05-10T23:00:34.184Z,11.50
2023-05-10T23:03:01.405Z,11.50
2023-05-10T23:05:31.305Z,11.50
2023-05-10T23:08:05.040Z,11.40
2023-05-10T23:10:35.229Z,11.50
2023-05-10T23:13:16.972Z,11.40
2023-05-10T23:15:43.894Z,11.40
2023-05-10T23:18:10.957Z,11.30
2023-05-10T23:20:47.073Z,11.30
2023-05-10T23:25:54.772Z,11.30
2023-05-10T23:28:21.835Z,11.30
2023-05-10T23:30:57.260Z,11.20
2023-05-10T23:33:27.710Z,11.20
2023-05-10T23:35:57.663Z,11.20
2023-05-10T23:38:24.722Z,11.10
2023-05-10T23:40:55.630Z,11.10
2023-05-10T23:43:25.641Z,11.00
2023-05-10T23:45:56.905Z,11.10
2023-05-10T23:48:27.981Z,11.20
2023-05-10T23:50:54.915Z,11.20
2023-05-10T23:53:28.236Z,11.30
2023-05-10T23:55:55.200Z,11.30
2023-05-10T23:58:28.986Z,11.50
